Time;durP1;ratioP1;P1;durP2;ratioP2;P2;SDS_P1;SDS_P2;PMS_P1;PMS_P2;Temp;Humidity;BMP_temperature;BMP_pressure;BME280_temperature;BME280_humidity;BME280_pressure;Samples;Min_cycle;Max_cycle;Signal;HPM_P1;HPM_P2
2021/08/10 00:18:39;;;;;;;10.60;3.55;;;;;;;15.29;72.84;100794.04;21123292;81;99495;-84
2021/08/10 00:48:41;;;;;;;9.15;4.08;;;;;;;15.13;73.25;100787.55;20721505;83;100064;-85
2021/08/10 01:19:28;;;;;;;8.98;3.75;;;;;;;15.04;74.57;100833.50;20397769;84;99931;-85
2021/08/10 01:49:31;;;;;;;10.70;3.97;;;;;;;15.28;75.33;100847.92;20946390;81;99958;-85
2021/08/10 02:19:34;;;;;;;8.63;4.47;;;;;;;15.51;75.94;100807.48;20975570;82;99899;-85
2021/08/10 02:49:35;;;;;;;5.17;2.63;;;;;;;15.63;74.84;100790.98;21015914;82;99627;-85
2021/08/10 03:19:39;;;;;;;8.50;2.60;;;;;;;15.76;73.75;100765.78;21153831;81;99656;-85
2021/08/10 03:49:41;;;;;;;6.70;2.70;;;;;;;15.57;72.66;100741.27;21030826;82;99593;-85
2021/08/10 04:19:46;;;;;;;7.13;2.93;;;;;;;15.35;73.12;100742.55;21053681;81;99270;-86
2021/08/10 04:49:45;;;;;;;8.67;3.90;;;;;;;15.19;75.00;100732.45;21190349;80;99425;-85
2021/08/10 05:19:46;;;;;;;11.53;4.62;;;;;;;15.27;76.33;100738.97;21219958;80;99379;-83
2021/08/10 05:49:46;;;;;;;11.43;5.17;;;;;;;15.86;75.31;100744.90;21135373;82;100447;-85
2021/08/10 06:19:49;;;;;;;18.67;6.05;;;;;;;18.28;75.21;100724.34;21089781;81;99698;-84
2021/08/10 06:49:50;;;;;;;8.73;3.80;;;;;;;20.29;69.08;100744.61;21060305;81;100618;-84
2021/08/10 07:19:52;;;;;;;10.33;4.50;;;;;;;21.16;64.58;100738.81;21105352;81;99696;-82
2021/08/10 07:49:53;;;;;;;9.48;4.00;;;;;;;21.78;60.95;100766.88;20922776;81;99592;-86
2021/08/10 08:19:54;;;;;;;11.45;3.80;;;;;;;21.19;63.54;100731.55;20965736;82;100013;-81
2021/08/10 08:49:57;;;;;;;9.27;3.77;;;;;;;21.83;64.01;100726.49;20857489;82;100055;-82
2021/08/10 09:20:02;;;;;;;11.95;5.95;;;;;;;22.25;62.23;100744.81;20829997;81;99465;-85
2021/08/10 09:50:04;;;;;;;12.15;3.98;;;;;;;21.16;68.35;100761.20;21069238;81;99678;-83
2021/08/10 10:20:07;;;;;;;7.62;3.08;;;;;;;22.11;68.98;100714.41;21112432;80;99842;-84
2021/08/10 10:50:15;;;;;;;7.63;2.60;;;;;;;22.62;67.94;100667.48;21149649;80;99673;-85
2021/08/10 11:20:25;;;;;;;11.43;3.40;;;;;;;23.72;64.87;100647.58;20643102;82;99524;-88
2021/08/10 11:50:32;;;;;;;10.68;4.03;;;;;;;25.20;59.14;100659.81;20510373;83;99489;-89
2021/08/10 12:20:33;;;;;;;5.45;2.40;;;;;;;25.44;58.91;100615.03;21227882;82;99685;-84
2021/08/10 12:50:34;;;;;;;9.60;2.80;;;;;;;25.99;55.11;100564.88;20918494;79;99462;-83
2021/08/10 13:20:41;;;;;;;7.03;3.20;;;;;;;25.95;55.53;100570.70;20580987;83;99665;-82
2021/08/10 13:50:42;;;;;;;7.85;2.33;;;;;;;24.85;58.11;100589.61;21037410;80;99269;-81
2021/08/10 14:20:43;;;;;;;8.33;3.02;;;;;;;23.50;57.91;100622.95;21073313;81;99617;-84
2021/08/10 14:50:45;;;;;;;8.00;3.10;;;;;;;22.08;61.30;100610.16;20725718;82;100160;-84
2021/08/10 15:20:46;;;;;;;9.27;3.63;;;;;;;22.16;61.14;100523.20;20661097;83;99945;-82
2021/08/10 15:50:47;;;;;;;8.60;3.90;;;;;;;22.51;59.84;100528.98;20940624;82;99218;-84
2021/08/10 16:20:48;;;;;;;4.58;2.40;;;;;;;22.72;60.79;100490.33;20824341;82;99316;-84
2021/08/10 16:50:49;;;;;;;14.43;4.50;;;;;;;22.30;59.55;100464.44;20996729;81;99452;-84
2021/08/10 17:20:50;;;;;;;8.60;3.20;;;;;;;21.82;61.86;100453.73;20626112;82;99496;-83
2021/08/10 17:50:51;;;;;;;7.08;3.00;;;;;;;21.30;63.94;100440.87;20986358;82;99550;-82
2021/08/10 18:20:52;;;;;;;8.43;3.00;;;;;;;20.71;65.44;100440.70;20991703;82;99427;-83
2021/08/10 18:50:53;;;;;;;5.10;2.85;;;;;;;19.91;67.18;100459.11;20997624;82;99306;-83
2021/08/10 19:20:54;;;;;;;6.30;3.10;;;;;;;18.96;69.77;100475.98;20995951;82;99291;-83
2021/08/10 19:50:54;;;;;;;7.83;2.77;;;;;;;17.97;71.85;100477.15;20790419;82;99241;-83
2021/08/10 20:20:55;;;;;;;;;;;;;;;17.09;74.37;100522.28;20710575;83;99699;-83
2021/08/10 20:50:56;;;;;;;6.72;3.35;;;;;;;16.44;77.47;100531.03;20847822;82;85472;-83
2021/08/10 21:20:57;;;;;;;6.45;2.90;;;;;;;15.92;77.68;100533.70;20931059;82;99620;-86
2021/08/10 21:50:58;;;;;;;6.08;3.12;;;;;;;15.41;79.54;100532.33;20916792;82;99706;-87
2021/08/10 22:20:59;;;;;;;8.43;4.28;;;;;;;15.10;80.44;100518.66;21030124;82;99535;-86
2021/08/10 22:51:00;;;;;;;7.55;4.03;;;;;;;14.79;81.79;100519.59;21031734;81;101056;-86
2021/08/10 23:21:01;;;;;;;9.48;4.60;;;;;;;14.60;83.26;100515.93;21036161;82;99729;-86
2021/08/10 23:51:02;;;;;;;14.95;7.83;;;;;;;14.55;84.18;100526.80;20832856;81;99284;-86
